Time;durP1;ratioP1;P1;durP2;ratioP2;P2;SDS_P1;SDS_P2;PMS_P1;PMS_P2;Temp;Humidity;BMP_temperature;BMP_pressure;BME280_temperature;BME280_humidity;BME280_pressure;Samples;Min_cycle;Max_cycle;Signal;HPM_P1;HPM_P2
2021/01/03 00:01:31;;;;;;;10.07;5.30;;;3.60;99.90;;;;;;5099468;28;20562;-59
2021/01/03 00:03:57;;;;;;;9.63;5.57;;;3.60;99.90;;;;;;5102532;28;20229;-59
2021/01/03 00:06:23;;;;;;;11.10;6.27;;;3.60;99.90;;;;;;5104764;28;20679;-60
2021/01/03 00:08:50;;;;;;;10.43;5.97;;;3.60;99.90;;;;;;5102412;28;20202;-59
2021/01/03 00:11:16;;;;;;;10.53;5.53;;;3.70;99.90;;;;;;5098606;28;20257;-61
2021/01/03 00:13:42;;;;;;;10.63;5.40;;;3.70;99.90;;;;;;5100369;28;20217;-61
2021/01/03 00:16:10;;;;;;;9.63;5.43;;;3.70;99.90;;;;;;5098756;28;20211;-57
2021/01/03 00:18:36;;;;;;;12.67;5.73;;;3.70;99.90;;;;;;5100311;28;20201;-59
2021/01/03 00:21:02;;;;;;;9.73;5.23;;;3.70;99.90;;;;;;5095485;28;20224;-60
2021/01/03 00:23:29;;;;;;;10.33;5.37;;;3.70;99.90;;;;;;5102679;28;20298;-60
2021/01/03 00:25:55;;;;;;;12.53;5.93;;;3.60;99.90;;;;;;5098426;28;20205;-60
2021/01/03 00:28:22;;;;;;;11.63;5.60;;;3.60;99.90;;;;;;5097316;28;20323;-59
2021/01/03 00:30:48;;;;;;;9.03;4.87;;;3.60;99.90;;;;;;5099565;28;20212;-59
2021/01/03 00:33:15;;;;;;;10.27;5.00;;;3.60;99.90;;;;;;5101217;28;20273;-60
2021/01/03 00:35:42;;;;;;;10.93;5.43;;;3.60;99.90;;;;;;5096379;28;20909;-60
2021/01/03 00:38:10;;;;;;;8.60;4.70;;;3.70;99.90;;;;;;5093763;28;20209;-60
2021/01/03 00:40:37;;;;;;;9.87;4.53;;;3.70;99.90;;;;;;5095661;28;20245;-60
2021/01/03 00:43:03;;;;;;;8.13;4.23;;;3.60;99.90;;;;;;5095223;28;20225;-57
2021/01/03 00:45:30;;;;;;;8.17;4.90;;;3.60;99.90;;;;;;5093001;28;20297;-60
2021/01/03 00:47:58;;;;;;;10.37;5.10;;;3.60;99.90;;;;;;5091051;28;20772;-60
2021/01/03 00:50:26;;;;;;;10.83;5.03;;;3.60;99.90;;;;;;5093350;28;20213;-59
2021/01/03 00:52:53;;;;;;;9.93;5.10;;;3.60;99.90;;;;;;5092506;28;20221;-55
2021/01/03 00:55:19;;;;;;;8.30;4.50;;;3.60;99.90;;;;;;5092627;28;20662;-61
2021/01/03 00:57:46;;;;;;;9.67;5.37;;;3.60;99.90;;;;;;5100443;28;20201;-60
2021/01/03 01:00:16;;;;;;;10.23;5.27;;;3.70;99.90;;;;;;5102387;28;20211;-58
2021/01/03 01:02:43;;;;;;;9.37;5.27;;;3.60;99.90;;;;;;5099979;28;20225;-60
2021/01/03 01:05:11;;;;;;;11.03;5.97;;;3.60;99.90;;;;;;5100955;28;20219;-57
2021/01/03 01:07:39;;;;;;;8.27;5.07;;;3.60;99.90;;;;;;5102617;28;20200;-60
2021/01/03 01:10:09;;;;;;;10.37;5.00;;;3.70;99.90;;;;;;5103271;28;20216;-61
2021/01/03 01:12:36;;;;;;;10.03;5.40;;;3.60;99.90;;;;;;5099639;28;20783;-60
2021/01/03 01:15:04;;;;;;;10.60;5.50;;;3.60;99.90;;;;;;5102991;28;20217;-57
2021/01/03 01:17:30;;;;;;;10.70;5.37;;;3.50;99.90;;;;;;5104938;28;20249;-60
2021/01/03 01:19:56;;;;;;;11.40;5.43;;;3.50;99.90;;;;;;5099305;28;20203;-56
2021/01/03 01:22:23;;;;;;;11.93;5.70;;;3.50;99.90;;;;;;5101504;28;20299;-61
2021/01/03 01:24:51;;;;;;;8.53;4.97;;;3.60;99.90;;;;;;5100029;28;20520;-58
2021/01/03 01:27:17;;;;;;;15.67;5.70;;;3.60;99.90;;;;;;5098590;28;20205;-59
2021/01/03 01:29:43;;;;;;;11.50;5.40;;;3.60;99.90;;;;;;5103686;28;20205;-60
2021/01/03 01:32:10;;;;;;;10.63;5.97;;;3.50;99.90;;;;;;5100424;28;20945;-60
2021/01/03 01:34:36;;;;;;;11.23;5.57;;;3.40;99.90;;;;;;5101505;28;20616;-59
2021/01/03 01:37:02;;;;;;;11.93;6.30;;;3.40;99.90;;;;;;5104272;28;20219;-61
2021/01/03 01:39:29;;;;;;;11.73;6.20;;;3.40;99.90;;;;;;5100948;28;20211;-60
2021/01/03 01:41:56;;;;;;;13.83;5.60;;;3.40;99.90;;;;;;5103450;28;20217;-58
2021/01/03 01:44:22;;;;;;;10.90;5.53;;;3.40;99.90;;;;;;5100691;28;20897;-60
2021/01/03 01:46:52;;;;;;;10.83;5.77;;;3.50;99.90;;;;;;5100335;28;20205;-60
2021/01/03 01:49:19;;;;;;;12.60;5.70;;;3.50;99.90;;;;;;5099685;28;20213;-56
2021/01/03 01:51:50;;;;;;;14.97;5.93;;;3.40;99.90;;;;;;5100558;28;20208;-59
2021/01/03 01:54:19;;;;;;;12.23;5.67;;;3.40;99.90;;;;;;5102850;28;20245;-61
2021/01/03 01:56:54;;;;;;;8.60;4.70;;;3.40;99.90;;;;;;5097511;28;20201;-57
2021/01/03 01:59:29;;;;;;;11.37;5.27;;;3.50;99.90;;;;;;5098142;28;20751;-60
2021/01/03 02:02:03;;;;;;;12.57;5.50;;;3.50;99.90;;;;;;5100361;28;20212;-61
2021/01/03 02:04:33;;;;;;;10.63;5.17;;;3.50;99.90;;;;;;5096258;28;20258;-61
2021/01/03 02:07:05;;;;;;;10.87;4.87;;;3.60;99.90;;;;;;5100959;28;20714;-57
2021/01/03 02:09:41;;;;;;;10.50;5.13;;;3.50;99.90;;;;;;5097424;28;20193;-58
2021/01/03 02:12:14;;;;;;;9.30;4.70;;;3.50;99.90;;;;;;5093994;28;20223;-60
2021/01/03 02:14:42;;;;;;;10.23;5.00;;;3.50;99.90;;;;;;5103423;28;20197;-61
2021/01/03 02:17:09;;;;;;;9.97;4.67;;;3.60;99.90;;;;;;5100981;28;20208;-58
2021/01/03 02:19:35;;;;;;;11.07;5.13;;;3.60;99.90;;;;;;5104729;28;20258;-61
2021/01/03 02:22:12;;;;;;;9.10;4.50;;;3.60;99.90;;;;;;5106474;28;20221;-58
2021/01/03 02:24:45;;;;;;;8.17;4.47;;;3.60;99.90;;;;;;5104882;28;20229;-58
2021/01/03 02:27:18;;;;;;;10.50;4.93;;;3.60;99.90;;;;;;5105907;28;20201;-60
2021/01/03 02:29:47;;;;;;;8.67;4.93;;;3.50;99.90;;;;;;5104403;28;20205;-59
2021/01/03 02:32:14;;;;;;;9.30;5.20;;;3.50;99.90;;;;;;5098513;28;20205;-59
2021/01/03 02:34:45;;;;;;;9.43;4.83;;;3.50;99.90;;;;;;5105197;28;20758;-59
2021/01/03 02:37:17;;;;;;;10.30;4.43;;;3.40;99.90;;;;;;5102413;28;20236;-60
2021/01/03 02:39:51;;;;;;;7.60;4.47;;;3.40;99.90;;;;;;5098448;28;20853;-57
2021/01/03 02:42:22;;;;;;;8.30;4.43;;;3.40;99.90;;;;;;5099458;28;20213;-57
2021/01/03 02:44:48;;;;;;;9.60;4.70;;;3.40;99.90;;;;;;5104600;28;20205;-61
2021/01/03 02:47:15;;;;;;;8.70;4.60;;;3.40;99.90;;;;;;5100444;28;20690;-60
2021/01/03 02:49:41;;;;;;;9.53;4.83;;;3.50;99.90;;;;;;5103360;28;20229;-59
2021/01/03 02:52:12;;;;;;;10.67;4.70;;;3.40;99.90;;;;;;5099706;28;20840;-60
2021/01/03 02:54:38;;;;;;;10.07;4.93;;;3.40;99.90;;;;;;5095441;28;20205;-59
2021/01/03 02:57:05;;;;;;;9.60;4.83;;;3.40;99.90;;;;;;5101180;27;20213;-61
2021/01/03 02:59:32;;;;;;;8.70;4.77;;;3.50;99.90;;;;;;5101323;28;20201;-58
2021/01/03 03:01:58;;;;;;;8.77;4.70;;;3.40;99.90;;;;;;5103919;28;20213;-60
2021/01/03 03:04:24;;;;;;;7.90;4.50;;;3.40;99.90;;;;;;5101647;28;20233;-59
2021/01/03 03:06:51;;;;;;;7.80;4.27;;;3.40;99.90;;;;;;5098375;28;20211;-59
2021/01/03 03:09:17;;;;;;;8.07;4.10;;;3.50;99.90;;;;;;5101813;28;20744;-61
2021/01/03 03:11:46;;;;;;;8.63;4.17;;;3.50;99.90;;;;;;5096802;28;20197;-60
2021/01/03 03:14:12;;;;;;;8.03;4.17;;;3.50;99.90;;;;;;5096840;28;20217;-61
2021/01/03 03:16:40;;;;;;;8.57;4.57;;;3.50;99.90;;;;;;5095852;28;20235;-59
2021/01/03 03:19:06;;;;;;;10.30;4.83;;;3.50;99.90;;;;;;5090229;28;20256;-60
2021/01/03 03:21:32;;;;;;;9.90;4.90;;;3.50;99.90;;;;;;5102488;28;20224;-60
2021/01/03 03:23:59;;;;;;;12.57;5.23;;;3.50;99.90;;;;;;5103661;27;20229;-59
2021/01/03 03:26:25;;;;;;;8.87;4.50;;;3.50;99.90;;;;;;5098156;28;20628;-53
2021/01/03 03:28:52;;;;;;;11.43;5.20;;;3.60;99.90;;;;;;5102514;27;20249;-59
2021/01/03 03:31:18;;;;;;;12.13;4.90;;;3.50;99.90;;;;;;5105595;28;20201;-56
2021/01/03 03:33:45;;;;;;;11.30;5.10;;;3.50;99.90;;;;;;5099701;28;20217;-55
2021/01/03 03:36:11;;;;;;;8.73;4.93;;;3.50;99.90;;;;;;5103033;28;20220;-59
2021/01/03 03:38:38;;;;;;;11.10;5.23;;;3.50;99.90;;;;;;5098398;28;20282;-60
2021/01/03 03:41:04;;;;;;;10.80;5.10;;;3.50;99.90;;;;;;5105054;28;20225;-61
2021/01/03 03:43:30;;;;;;;10.30;5.17;;;3.50;99.90;;;;;;5101550;28;20224;-59
2021/01/03 03:45:56;;;;;;;11.10;5.10;;;3.50;99.90;;;;;;5105918;28;20208;-59
2021/01/03 03:48:23;;;;;;;13.37;5.80;;;3.50;99.90;;;;;;5100097;28;20257;-59
2021/01/03 03:50:50;;;;;;;10.97;5.37;;;3.50;99.90;;;;;;5102531;28;20201;-60
2021/01/03 03:53:16;;;;;;;11.83;6.07;;;3.50;99.90;;;;;;5099828;28;20230;-58
2021/01/03 03:55:42;;;;;;;9.80;5.20;;;3.50;99.90;;;;;;5102670;28;20249;-54
2021/01/03 03:58:09;;;;;;;13.33;5.47;;;3.50;99.90;;;;;;5102070;28;20630;-57
2021/01/03 04:00:35;;;;;;;13.50;5.47;;;3.50;99.90;;;;;;5098400;28;20620;-60
2021/01/03 04:03:01;;;;;;;10.60;5.53;;;3.50;99.90;;;;;;5100889;28;20225;-61
2021/01/03 04:05:28;;;;;;;10.27;5.60;;;3.40;99.90;;;;;;5102320;28;20208;-59
2021/01/03 04:07:55;;;;;;;14.60;5.50;;;3.50;99.90;;;;;;5101951;28;20637;-60
2021/01/03 04:10:21;;;;;;;10.67;5.60;;;3.50;99.90;;;;;;5103536;28;20735;-56
2021/01/03 04:12:48;;;;;;;14.23;6.23;;;3.50;99.90;;;;;;5098837;28;20369;-58
2021/01/03 04:15:18;;;;;;;10.60;5.53;;;3.40;99.90;;;;;;5099006;28;20201;-61
2021/01/03 04:17:44;;;;;;;11.10;5.30;;;3.40;99.90;;;;;;5096908;28;20211;-60
2021/01/03 04:20:15;;;;;;;13.10;5.87;;;3.40;99.90;;;;;;5103176;28;20234;-61
2021/01/03 04:22:42;;;;;;;14.70;6.10;;;3.40;99.90;;;;;;5104341;28;20558;-59
2021/01/03 04:25:10;;;;;;;10.23;5.20;;;3.40;99.90;;;;;;5103138;28;20208;-61
2021/01/03 04:27:37;;;;;;;14.20;6.20;;;3.40;99.90;;;;;;5104711;28;20208;-60
2021/01/03 04:30:04;;;;;;;13.27;6.50;;;3.50;99.90;;;;;;5098015;28;20216;-60
2021/01/03 04:32:31;;;;;;;12.80;6.07;;;3.40;99.90;;;;;;5104090;28;20232;-59
2021/01/03 04:34:57;;;;;;;12.30;5.63;;;3.50;99.90;;;;;;5101645;28;20201;-60
2021/01/03 04:37:23;;;;;;;13.97;6.00;;;3.40;99.90;;;;;;5100216;28;20208;-60
2021/01/03 04:39:50;;;;;;;14.33;6.07;;;3.40;99.90;;;;;;5103548;28;20608;-56
2021/01/03 04:42:20;;;;;;;14.10;5.90;;;3.40;99.90;;;;;;5103255;28;20232;-60
2021/01/03 04:44:49;;;;;;;15.87;6.20;;;3.40;99.90;;;;;;5104065;28;20205;-60
2021/01/03 04:47:25;;;;;;;14.57;6.60;;;3.40;99.90;;;;;;5099908;28;20215;-60
2021/01/03 04:49:57;;;;;;;11.50;5.43;;;3.50;99.90;;;;;;5097342;28;20205;-58
2021/01/03 04:53:01;;;;;;;14.97;6.27;;;3.40;99.90;;;;;;5105486;28;20632;-60
2021/01/03 04:55:29;;;;;;;13.97;6.73;;;3.40;99.90;;;;;;5100773;28;20207;-58
2021/01/03 04:58:15;;;;;;;12.23;5.47;;;3.40;99.90;;;;;;5097855;28;20204;-60
2021/01/03 05:00:50;;;;;;;16.33;7.20;;;3.50;99.90;;;;;;5093580;28;20224;-57
2021/01/03 05:03:48;;;;;;;11.87;5.73;;;3.50;99.90;;;;;;5079455;28;571212;-57
2021/01/03 05:06:18;;;;;;;14.13;6.10;;;3.50;99.90;;;;;;5100356;28;20581;-61
2021/01/03 05:08:47;;;;;;;13.17;6.43;;;3.50;99.90;;;;;;5106196;28;20205;-60
2021/01/03 05:11:17;;;;;;;13.00;5.80;;;3.50;99.90;;;;;;5105343;28;20639;-59
2021/01/03 05:13:58;;;;;;;13.07;5.97;;;3.50;99.90;;;;;;5099955;28;20582;-59
2021/01/03 05:16:24;;;;;;;11.87;5.70;;;3.50;99.90;;;;;;5091263;28;20612;-56
2021/01/03 05:18:50;;;;;;;11.57;5.60;;;3.50;99.90;;;;;;5098862;28;20201;-59
2021/01/03 05:21:17;;;;;;;12.80;6.00;;;3.40;99.90;;;;;;5101449;28;20226;-57
2021/01/03 05:23:58;;;;;;;15.20;6.10;;;3.50;99.90;;;;;;5103464;28;20223;-60
2021/01/03 05:26:28;;;;;;;14.33;6.40;;;3.40;99.90;;;;;;5104830;28;20215;-60
2021/01/03 05:28:56;;;;;;;13.60;5.47;;;3.40;99.90;;;;;;5104334;28;20200;-59
2021/01/03 05:31:24;;;;;;;13.53;6.00;;;3.40;99.90;;;;;;5092555;28;20494;-60
2021/01/03 05:33:53;;;;;;;15.90;6.37;;;3.40;99.90;;;;;;5099855;28;20605;-60
2021/01/03 05:36:42;;;;;;;13.70;5.50;;;3.50;99.90;;;;;;5099524;28;20299;-59
2021/01/03 05:39:26;;;;;;;13.47;5.90;;;3.40;99.90;;;;;;5099124;28;20211;-61
2021/01/03 05:42:12;;;;;;;10.47;5.17;;;3.40;99.90;;;;;;5098124;28;20221;-61
2021/01/03 05:44:42;;;;;;;14.97;6.07;;;3.50;99.90;;;;;;5100632;28;20261;-60
2021/01/03 05:47:18;;;;;;;14.17;6.10;;;3.50;99.90;;;;;;5099037;28;20206;-60
2021/01/03 05:49:45;;;;;;;13.33;6.53;;;3.40;99.90;;;;;;5102921;28;20215;-58
2021/01/03 05:52:24;;;;;;;16.03;6.73;;;3.30;99.90;;;;;;5099167;28;20698;-61
2021/01/03 05:54:52;;;;;;;13.33;6.17;;;3.50;99.90;;;;;;5099743;28;20206;-60
2021/01/03 05:57:25;;;;;;;17.63;7.37;;;3.40;99.90;;;;;;5106496;28;20201;-60
2021/01/03 05:59:52;;;;;;;14.37;6.10;;;3.40;99.90;;;;;;5108558;28;20681;-60
2021/01/03 06:02:21;;;;;;;14.40;5.57;;;3.40;99.90;;;;;;5096257;28;20223;-59
2021/01/03 06:04:48;;;;;;;13.27;5.60;;;3.40;99.90;;;;;;5098624;28;20201;-60
2021/01/03 06:07:22;;;;;;;12.60;5.73;;;3.40;99.90;;;;;;5104082;28;20205;-60
2021/01/03 06:09:48;;;;;;;16.23;6.63;;;3.40;99.90;;;;;;5102790;28;20205;-59
2021/01/03 06:12:17;;;;;;;10.97;5.27;;;3.40;99.90;;;;;;5100266;28;20208;-58
2021/01/03 06:14:45;;;;;;;16.53;7.33;;;3.30;99.90;;;;;;5099227;28;20197;-61
2021/01/03 06:17:34;;;;;;;12.87;6.80;;;3.40;99.90;;;;;;5109335;28;20209;-61
2021/01/03 06:20:17;;;;;;;16.70;6.90;;;3.40;99.90;;;;;;5102799;28;20623;-58
2021/01/03 06:22:49;;;;;;;16.80;7.40;;;3.40;99.90;;;;;;5101793;28;20280;-61
2021/01/03 06:25:45;;;;;;;15.77;6.93;;;3.30;99.90;;;;;;5098689;28;20295;-61
2021/01/03 06:28:15;;;;;;;19.40;8.23;;;3.30;99.90;;;;;;5083859;28;20210;-59
2021/01/03 06:30:50;;;;;;;14.90;7.10;;;3.30;99.90;;;;;;5101414;28;20296;-58
2021/01/03 06:33:58;;;;;;;17.10;7.20;;;3.20;99.90;;;;;;5100209;28;20220;-60
2021/01/03 06:36:32;;;;;;;15.47;6.63;;;3.30;99.90;;;;;;5103528;28;20299;-60
2021/01/03 06:39:17;;;;;;;19.80;7.77;;;3.30;99.90;;;;;;5107394;28;20201;-59
2021/01/03 06:41:50;;;;;;;17.70;7.60;;;3.20;99.90;;;;;;5097055;28;20758;-60
2021/01/03 06:44:50;;;;;;;17.43;7.53;;;3.20;99.90;;;;;;5099359;28;20236;-59
2021/01/03 06:47:55;;;;;;;14.77;6.40;;;3.20;99.90;;;;;;5099539;28;20205;-60
2021/01/03 06:50:56;;;;;;;15.33;6.60;;;3.20;99.90;;;;;;5104722;28;20204;-59
2021/01/03 06:53:56;;;;;;;14.83;6.37;;;3.30;99.90;;;;;;5101276;28;20256;-60
2021/01/03 06:57:09;;;;;;;15.23;6.80;;;3.20;99.90;;;;;;5096278;28;20210;-58
2021/01/03 07:00:08;;;;;;;14.73;5.60;;;3.30;99.90;;;;;;5097935;28;20217;-59
2021/01/03 07:02:40;;;;;;;15.77;6.73;;;3.30;99.90;;;;;;5092249;28;20225;-60
2021/01/03 07:05:08;;;;;;;16.40;7.67;;;3.30;99.90;;;;;;5099574;28;20210;-59
2021/01/03 07:07:38;;;;;;;12.63;5.80;;;3.30;99.90;;;;;;5104146;28;20242;-59
2021/01/03 07:10:09;;;;;;;16.37;7.20;;;3.30;99.90;;;;;;5105163;28;20752;-59
2021/01/03 07:12:39;;;;;;;15.67;7.50;;;3.30;99.90;;;;;;5107153;28;20612;-60
2021/01/03 07:15:37;;;;;;;15.67;6.27;;;3.30;99.90;;;;;;5102455;28;20213;-61
2021/01/03 07:18:29;;;;;;;18.93;8.60;;;3.30;99.90;;;;;;5106071;28;20205;-59
2021/01/03 07:21:03;;;;;;;19.83;8.57;;;3.30;99.90;;;;;;5102411;28;20221;-57
2021/01/03 07:23:35;;;;;;;16.80;7.40;;;3.30;99.90;;;;;;5094632;28;20317;-59
2021/01/03 07:26:13;;;;;;;14.17;7.30;;;3.30;99.90;;;;;;5096098;28;20254;-60
2021/01/03 07:28:40;;;;;;;14.23;6.83;;;3.30;99.90;;;;;;5097652;28;20330;-60
2021/01/03 07:31:12;;;;;;;16.57;8.10;;;3.40;99.90;;;;;;5102024;28;20198;-57
2021/01/03 07:33:50;;;;;;;14.07;6.23;;;3.40;99.90;;;;;;5103487;28;20213;-59
2021/01/03 07:36:22;;;;;;;16.53;7.43;;;3.40;99.90;;;;;;5101598;28;20262;-59
2021/01/03 07:39:29;;;;;;;10.87;5.00;;;3.40;99.90;;;;;;5104041;28;20253;-61
2021/01/03 07:42:18;;;;;;;16.90;7.67;;;3.40;99.90;;;;;;5003492;28;20220;-59
2021/01/03 07:44:45;;;;;;;14.60;7.07;;;3.40;99.90;;;;;;5106155;28;20247;-59
2021/01/03 07:47:12;;;;;;;14.20;6.23;;;3.40;99.90;;;;;;5105698;28;20201;-56
2021/01/03 07:49:41;;;;;;;18.93;7.87;;;3.50;99.90;;;;;;5106777;28;20624;-61
2021/01/03 07:52:41;;;;;;;16.47;7.37;;;3.40;99.90;;;;;;5100216;28;20202;-58
2021/01/03 07:55:28;;;;;;;17.63;7.23;;;3.40;99.90;;;;;;5100881;28;20212;-58
2021/01/03 07:57:56;;;;;;;17.60;6.90;;;3.40;99.90;;;;;;5098346;28;20212;-59
2021/01/03 08:00:23;;;;;;;17.50;7.00;;;3.50;99.90;;;;;;5102483;28;20205;-59
2021/01/03 08:02:54;;;;;;;15.63;6.40;;;3.50;99.90;;;;;;5103607;28;20223;-60
2021/01/03 08:05:21;;;;;;;17.87;7.80;;;3.50;99.90;;;;;;5102975;28;20208;-60
2021/01/03 08:07:48;;;;;;;16.77;8.03;;;3.50;99.90;;;;;;5101803;28;20197;-60
2021/01/03 08:10:15;;;;;;;19.13;7.93;;;3.40;99.90;;;;;;5107462;28;20208;-58
2021/01/03 08:12:46;;;;;;;19.23;8.40;;;3.50;99.90;;;;;;5099192;28;20303;-57
2021/01/03 08:15:24;;;;;;;18.23;7.73;;;3.40;99.90;;;;;;5091784;28;20656;-59
2021/01/03 08:17:51;;;;;;;18.73;8.73;;;3.40;99.90;;;;;;5105958;28;20702;-60
2021/01/03 08:20:21;;;;;;;21.73;9.83;;;3.50;99.90;;;;;;5100450;28;20209;-60
2021/01/03 08:22:47;;;;;;;19.97;8.70;;;3.40;99.90;;;;;;5091441;28;20226;-58
2021/01/03 08:25:18;;;;;;;24.07;9.00;;;3.40;99.90;;;;;;5103278;28;20201;-59
2021/01/03 08:27:50;;;;;;;19.33;8.77;;;3.40;99.90;;;;;;5097415;28;20209;-61
2021/01/03 08:30:22;;;;;;;18.90;7.33;;;3.40;99.90;;;;;;5102944;28;20211;-61
2021/01/03 08:32:49;;;;;;;23.07;9.53;;;3.40;99.90;;;;;;5103368;28;20212;-60
2021/01/03 08:35:24;;;;;;;21.63;8.43;;;3.40;99.90;;;;;;5105190;28;20680;-60
2021/01/03 08:37:50;;;;;;;25.97;10.70;;;3.40;99.90;;;;;;5098065;28;20209;-61
2021/01/03 08:40:22;;;;;;;21.10;9.23;;;3.50;99.90;;;;;;5102051;28;20208;-61
2021/01/03 08:42:55;;;;;;;19.30;7.97;;;3.50;99.90;;;;;;5105329;28;20221;-59
2021/01/03 08:45:28;;;;;;;26.87;10.93;;;3.40;99.90;;;;;;5102203;28;20726;-59
2021/01/03 08:47:59;;;;;;;26.57;9.87;;;3.50;99.90;;;;;;5098378;28;20201;-60
2021/01/03 08:50:29;;;;;;;27.10;10.47;;;3.50;99.90;;;;;;5103651;28;20203;-60
2021/01/03 08:53:02;;;;;;;25.33;9.77;;;3.40;99.90;;;;;;5106156;28;20357;-60
2021/01/03 08:55:31;;;;;;;29.20;13.07;;;3.50;99.90;;;;;;5095515;28;20205;-60
2021/01/03 08:58:00;;;;;;;20.73;8.30;;;3.40;99.90;;;;;;5098559;28;20206;-59
2021/01/03 09:00:31;;;;;;;27.17;10.20;;;3.40;99.90;;;;;;5101141;28;20561;-57
2021/01/03 09:02:59;;;;;;;28.77;12.43;;;3.40;99.90;;;;;;5092037;28;20221;-58
2021/01/03 09:05:30;;;;;;;31.83;12.50;;;3.40;99.90;;;;;;5095903;28;20201;-61
2021/01/03 09:07:57;;;;;;;29.63;13.23;;;3.40;99.90;;;;;;5105543;28;20204;-60
2021/01/03 09:10:32;;;;;;;30.53;12.57;;;3.40;99.90;;;;;;5104995;28;20193;-57
2021/01/03 09:13:19;;;;;;;29.70;13.07;;;3.40;99.90;;;;;;5099260;28;20570;-57
2021/01/03 09:15:55;;;;;;;33.63;13.33;;;3.40;99.90;;;;;;5104689;28;20211;-61
2021/01/03 09:18:28;;;;;;;27.67;11.13;;;3.40;99.90;;;;;;5094142;28;20201;-59
2021/01/03 09:21:01;;;;;;;27.87;10.83;;;3.40;99.90;;;;;;5104047;28;20235;-60
2021/01/03 09:23:29;;;;;;;30.20;12.67;;;3.40;99.90;;;;;;5087632;28;20255;-59
2021/01/03 09:25:57;;;;;;;28.00;11.33;;;3.40;99.90;;;;;;5105551;28;20209;-60
2021/01/03 09:28:27;;;;;;;23.97;10.77;;;3.30;99.90;;;;;;5100005;28;20201;-61
2021/01/03 09:31:19;;;;;;;30.07;11.53;;;3.30;99.90;;;;;;5099097;28;20288;-58
2021/01/03 09:33:50;;;;;;;30.87;10.53;;;3.40;99.90;;;;;;5094860;28;20217;-59
2021/01/03 09:36:27;;;;;;;28.77;12.33;;;3.30;99.90;;;;;;5094222;28;20201;-57
2021/01/03 09:39:18;;;;;;;32.53;11.30;;;3.40;99.90;;;;;;5097294;28;20282;-57
2021/01/03 09:42:04;;;;;;;31.23;12.63;;;3.40;99.90;;;;;;5105182;28;20221;-58
2021/01/03 09:44:40;;;;;;;28.40;11.60;;;3.40;99.90;;;;;;5095446;28;20248;-61
2021/01/03 09:47:08;;;;;;;27.93;11.30;;;3.40;99.90;;;;;;5094723;28;20211;-60
2021/01/03 09:49:45;;;;;;;30.90;11.53;;;3.40;99.90;;;;;;5101540;28;20201;-59
2021/01/03 09:52:22;;;;;;;27.53;10.67;;;3.40;99.90;;;;;;5103277;28;20205;-60
2021/01/03 09:54:59;;;;;;;33.63;12.27;;;3.30;99.90;;;;;;5091320;28;20205;-59
2021/01/03 09:57:34;;;;;;;19.60;7.60;;;3.40;99.90;;;;;;5097688;28;20197;-60
2021/01/03 10:00:05;;;;;;;38.83;11.60;;;3.30;99.90;;;;;;5095534;28;20839;-59
2021/01/03 10:02:31;;;;;;;28.37;11.83;;;3.30;99.90;;;;;;5096980;28;20269;-60
2021/01/03 10:04:57;;;;;;;24.37;10.10;;;3.30;99.90;;;;;;5093782;28;20197;-60
2021/01/03 10:07:27;;;;;;;23.57;10.23;;;3.30;99.90;;;;;;5097439;28;20213;-60
2021/01/03 10:09:56;;;;;;;24.03;10.07;;;3.20;99.90;;;;;;5090466;28;20205;-59
2021/01/03 10:12:33;;;;;;;27.37;11.30;;;3.20;99.90;;;;;;5099682;28;20198;-61
2021/01/03 10:15:08;;;;;;;24.97;9.93;;;3.20;99.90;;;;;;5105497;28;20220;-60
2021/01/03 10:17:35;;;;;;;25.37;10.30;;;3.20;99.90;;;;;;5097898;28;20211;-57
2021/01/03 10:20:03;;;;;;;21.20;9.23;;;3.20;99.90;;;;;;5104859;28;20202;-58
2021/01/03 10:22:33;;;;;;;28.40;10.07;;;3.20;99.90;;;;;;5103796;28;20623;-59
2021/01/03 10:25:01;;;;;;;24.27;9.20;;;3.20;99.90;;;;;;5102552;28;20201;-60
2021/01/03 10:27:28;;;;;;;28.37;11.87;;;3.20;99.90;;;;;;5099201;28;20211;-58
2021/01/03 10:29:54;;;;;;;28.27;10.87;;;3.20;99.90;;;;;;5099091;28;20205;-60
2021/01/03 10:32:22;;;;;;;23.20;9.23;;;3.20;99.90;;;;;;5095081;28;20257;-59
2021/01/03 10:34:49;;;;;;;22.80;9.67;;;3.20;99.90;;;;;;5093175;28;20564;-60
2021/01/03 10:37:16;;;;;;;23.50;9.03;;;3.20;99.90;;;;;;5098469;28;20213;-57
2021/01/03 10:39:44;;;;;;;23.27;10.00;;;3.20;99.90;;;;;;5097710;28;20219;-60
2021/01/03 10:42:11;;;;;;;27.87;10.67;;;3.20;99.90;;;;;;5096076;28;20217;-60
2021/01/03 10:44:38;;;;;;;23.13;9.80;;;3.20;99.90;;;;;;5097201;28;20282;-60
2021/01/03 10:47:05;;;;;;;25.03;9.87;;;3.30;99.90;;;;;;5098976;28;20216;-60
2021/01/03 10:49:32;;;;;;;25.80;10.87;;;3.20;99.90;;;;;;5097722;28;20292;-61
2021/01/03 10:51:58;;;;;;;22.30;9.50;;;3.20;99.90;;;;;;5095965;28;20216;-61
2021/01/03 10:54:26;;;;;;;21.80;9.03;;;3.20;99.90;;;;;;5097413;28;20214;-60
2021/01/03 10:56:55;;;;;;;22.90;9.43;;;3.20;99.90;;;;;;5097323;28;20202;-61
2021/01/03 10:59:22;;;;;;;24.10;9.33;;;3.20;99.90;;;;;;5096180;28;20213;-60
2021/01/03 11:01:49;;;;;;;22.20;9.40;;;3.20;99.90;;;;;;5098934;28;20217;-61
2021/01/03 11:04:17;;;;;;;23.10;9.00;;;3.40;99.90;;;;;;5098904;28;20218;-61
2021/01/03 11:06:48;;;;;;;21.10;8.17;;;3.30;99.90;;;;;;5100307;28;20202;-62
2021/01/03 11:09:16;;;;;;;20.67;9.03;;;3.20;99.90;;;;;;5096480;28;20289;-62
2021/01/03 11:11:43;;;;;;;22.33;9.40;;;3.20;99.90;;;;;;5097605;28;21527;-62
2021/01/03 11:14:09;;;;;;;23.07;9.77;;;3.20;99.90;;;;;;5097717;28;20217;-59
2021/01/03 11:16:38;;;;;;;25.17;9.23;;;3.20;99.90;;;;;;5095550;28;20605;-61
2021/01/03 11:19:07;;;;;;;21.23;8.00;;;3.20;99.90;;;;;;5096453;28;20326;-61
2021/01/03 11:21:34;;;;;;;23.00;10.37;;;3.20;99.90;;;;;;5095922;28;20217;-61
2021/01/03 11:24:01;;;;;;;20.53;9.07;;;3.20;99.90;;;;;;5094331;28;20592;-61
2021/01/03 11:26:29;;;;;;;23.80;8.97;;;3.20;99.90;;;;;;5098281;28;20218;-61
2021/01/03 11:28:56;;;;;;;21.03;9.40;;;3.10;99.90;;;;;;5096958;28;20209;-62
2021/01/03 11:31:22;;;;;;;21.43;9.33;;;3.20;99.90;;;;;;5093274;28;20588;-61
2021/01/03 11:33:49;;;;;;;20.77;9.43;;;3.10;99.90;;;;;;5104924;28;20944;-61
2021/01/03 11:36:17;;;;;;;25.20;9.87;;;3.10;99.90;;;;;;5096269;28;20228;-62
2021/01/03 11:38:45;;;;;;;21.50;9.33;;;3.10;99.90;;;;;;5097254;28;20640;-61
2021/01/03 11:41:13;;;;;;;20.37;9.47;;;3.00;99.90;;;;;;5098043;28;20206;-61
2021/01/03 11:43:40;;;;;;;21.63;8.83;;;3.10;99.90;;;;;;5105322;28;20217;-62
2021/01/03 11:46:06;;;;;;;24.57;9.77;;;3.10;99.90;;;;;;5097971;28;20205;-62
2021/01/03 11:48:33;;;;;;;18.33;9.17;;;3.00;99.90;;;;;;5099692;28;20205;-63
2021/01/03 11:50:59;;;;;;;22.80;9.17;;;3.00;99.90;;;;;;5095544;28;20220;-61
2021/01/03 11:53:26;;;;;;;19.60;8.43;;;3.00;99.90;;;;;;5100576;28;20209;-61
2021/01/03 11:55:52;;;;;;;24.67;10.60;;;3.00;99.90;;;;;;5098925;28;20205;-60
2021/01/03 11:58:19;;;;;;;23.40;10.33;;;3.10;99.90;;;;;;5097422;28;20197;-60
2021/01/03 12:00:45;;;;;;;23.53;10.33;;;3.00;99.90;;;;;;5094941;28;20197;-62
2021/01/03 12:03:12;;;;;;;21.53;9.23;;;3.10;99.90;;;;;;5095167;28;20294;-61
2021/01/03 12:05:38;;;;;;;20.27;8.53;;;3.00;99.90;;;;;;5095241;28;20305;-62
2021/01/03 12:08:05;;;;;;;22.07;8.73;;;3.00;99.90;;;;;;5104620;28;20627;-64
2021/01/03 12:10:32;;;;;;;18.90;8.50;;;3.00;99.90;;;;;;5107109;28;20205;-63
2021/01/03 12:12:58;;;;;;;16.93;7.80;;;3.10;99.90;;;;;;5101059;28;20209;-62
2021/01/03 12:15:25;;;;;;;17.60;6.63;;;3.00;99.90;;;;;;5100867;28;20201;-59
2021/01/03 12:17:51;;;;;;;20.47;9.10;;;3.00;99.90;;;;;;5102752;28;20202;-60
2021/01/03 12:20:18;;;;;;;20.20;9.20;;;3.00;99.90;;;;;;5100341;28;20209;-59
2021/01/03 12:22:44;;;;;;;15.30;7.20;;;3.00;99.90;;;;;;5091617;28;20225;-62
2021/01/03 12:25:11;;;;;;;18.17;7.93;;;2.90;99.90;;;;;;5098955;28;20220;-61
2021/01/03 12:27:38;;;;;;;17.83;7.93;;;2.90;99.90;;;;;;5099486;28;20659;-60
2021/01/03 12:30:05;;;;;;;21.67;9.43;;;2.80;99.90;;;;;;5088566;28;20258;-59
2021/01/03 12:32:32;;;;;;;18.30;7.90;;;2.80;99.90;;;;;;5104933;28;20219;-61
2021/01/03 12:34:59;;;;;;;15.23;6.83;;;2.80;99.90;;;;;;5104155;28;20296;-59
2021/01/03 12:37:26;;;;;;;16.67;6.83;;;2.70;99.90;;;;;;5103484;28;20246;-62
2021/01/03 12:39:52;;;;;;;20.43;9.43;;;2.70;99.90;;;;;;5093672;28;20585;-60
2021/01/03 12:42:22;;;;;;;18.27;8.33;;;2.70;99.90;;;;;;5106349;28;20632;-63
2021/01/03 12:44:49;;;;;;;23.20;9.57;;;2.60;99.90;;;;;;5098058;28;20205;-62
2021/01/03 12:47:15;;;;;;;21.07;8.00;;;2.60;99.90;;;;;;5101916;28;20213;-62
2021/01/03 12:49:43;;;;;;;21.27;9.10;;;2.60;99.90;;;;;;5103540;28;20201;-61
2021/01/03 12:52:09;;;;;;;17.93;8.20;;;2.60;99.90;;;;;;5096811;28;20201;-61
2021/01/03 12:54:36;;;;;;;18.33;8.50;;;2.50;99.90;;;;;;5105463;28;20676;-62
2021/01/03 12:57:02;;;;;;;18.90;7.93;;;2.50;99.90;;;;;;5105286;28;20203;-61
2021/01/03 12:59:29;;;;;;;22.33;7.70;;;2.50;99.90;;;;;;5102293;28;20206;-60
2021/01/03 13:01:56;;;;;;;19.80;9.23;;;2.50;99.90;;;;;;5093770;28;20255;-61
2021/01/03 13:04:22;;;;;;;20.80;8.23;;;2.50;99.90;;;;;;5102629;28;20228;-60